sensor_id;sensor_type;location;lat;lon;timestamp;P1;durP1;ratioP1;P2;durP2;ratioP2
46222;SDS011;31943;51.410;7.564;2023-11-21T00:00:29;7.28;;;3.60;;
46222;SDS011;31943;51.410;7.564;2023-11-21T00:02:54;6.05;;;3.50;;
46222;SDS011;31943;51.410;7.564;2023-11-21T00:05:21;8.15;;;3.75;;
46222;SDS011;31943;51.410;7.564;2023-11-21T00:07:47;4.32;;;3.00;;
46222;SDS011;31943;51.410;7.564;2023-11-21T00:10:13;6.63;;;3.80;;
46222;SDS011;31943;51.410;7.564;2023-11-21T00:12:38;8.35;;;4.10;;
46222;SDS011;31943;51.410;7.564;2023-11-21T00:15:04;9.18;;;3.97;;
46222;SDS011;31943;51.410;7.564;2023-11-21T00:17:31;6.40;;;3.78;;
46222;SDS011;31943;51.410;7.564;2023-11-21T00:19:56;8.18;;;4.75;;
46222;SDS011;31943;51.410;7.564;2023-11-21T00:22:23;6.35;;;3.97;;
46222;SDS011;31943;51.410;7.564;2023-11-21T00:24:49;6.28;;;3.88;;
46222;SDS011;31943;51.410;7.564;2023-11-21T00:27:14;11.70;;;5.00;;
46222;SDS011;31943;51.410;7.564;2023-11-21T00:29:40;8.60;;;4.97;;
46222;SDS011;31943;51.410;7.564;2023-11-21T00:32:06;14.02;;;5.28;;
46222;SDS011;31943;51.410;7.564;2023-11-21T00:34:32;11.70;;;4.70;;
46222;SDS011;31943;51.410;7.564;2023-11-21T00:36:58;9.85;;;4.43;;
46222;SDS011;31943;51.410;7.564;2023-11-21T00:39:25;6.10;;;4.43;;
46222;SDS011;31943;51.410;7.564;2023-11-21T00:41:50;7.70;;;4.82;;
46222;SDS011;31943;51.410;7.564;2023-11-21T00:44:16;8.52;;;4.53;;
46222;SDS011;31943;51.410;7.564;2023-11-21T00:46:42;8.38;;;3.72;;
46222;SDS011;31943;51.410;7.564;2023-11-21T00:49:08;6.75;;;3.72;;
46222;SDS011;31943;51.410;7.564;2023-11-21T00:51:34;5.90;;;3.83;;
46222;SDS011;31943;51.410;7.564;2023-11-21T00:54:01;8.15;;;4.85;;
46222;SDS011;31943;51.410;7.564;2023-11-21T00:56:28;9.32;;;4.88;;
46222;SDS011;31943;51.410;7.564;2023-11-21T00:58:54;6.18;;;5.03;;
46222;SDS011;31943;51.410;7.564;2023-11-21T01:01:20;7.10;;;5.25;;
46222;SDS011;31943;51.410;7.564;2023-11-21T01:03:46;11.13;;;5.85;;
46222;SDS011;31943;51.410;7.564;2023-11-21T01:06:12;10.10;;;5.43;;
46222;SDS011;31943;51.410;7.564;2023-11-21T01:08:39;10.82;;;4.78;;
46222;SDS011;31943;51.410;7.564;2023-11-21T01:11:05;5.80;;;4.28;;
46222;SDS011;31943;51.410;7.564;2023-11-21T01:13:32;7.20;;;5.15;;
46222;SDS011;31943;51.410;7.564;2023-11-21T01:15:57;8.82;;;4.15;;
46222;SDS011;31943;51.410;7.564;2023-11-21T01:18:24;9.32;;;5.25;;
46222;SDS011;31943;51.410;7.564;2023-11-21T01:20:49;8.85;;;5.13;;
46222;SDS011;31943;51.410;7.564;2023-11-21T01:23:15;8.88;;;4.43;;
46222;SDS011;31943;51.410;7.564;2023-11-21T01:25:40;10.13;;;4.93;;
46222;SDS011;31943;51.410;7.564;2023-11-21T01:28:06;7.63;;;4.30;;
46222;SDS011;31943;51.410;7.564;2023-11-21T01:30:33;7.43;;;4.10;;
46222;SDS011;31943;51.410;7.564;2023-11-21T01:32:59;8.93;;;4.53;;
46222;SDS011;31943;51.410;7.564;2023-11-21T01:35:25;11.45;;;5.25;;
46222;SDS011;31943;51.410;7.564;2023-11-21T01:37:53;7.38;;;4.43;;
46222;SDS011;31943;51.410;7.564;2023-11-21T01:40:18;10.20;;;4.93;;
46222;SDS011;31943;51.410;7.564;2023-11-21T01:42:44;7.20;;;4.43;;
46222;SDS011;31943;51.410;7.564;2023-11-21T01:45:10;6.20;;;4.28;;
46222;SDS011;31943;51.410;7.564;2023-11-21T01:47:37;7.50;;;4.32;;
46222;SDS011;31943;51.410;7.564;2023-11-21T01:50:03;7.10;;;4.90;;
46222;SDS011;31943;51.410;7.564;2023-11-21T01:52:31;8.15;;;4.90;;
46222;SDS011;31943;51.410;7.564;2023-11-21T01:54:58;5.40;;;4.22;;
46222;SDS011;31943;51.410;7.564;2023-11-21T01:57:25;5.25;;;4.13;;
46222;SDS011;31943;51.410;7.564;2023-11-21T01:59:51;9.27;;;4.95;;
46222;SDS011;31943;51.410;7.564;2023-11-21T02:02:19;7.30;;;5.00;;
46222;SDS011;31943;51.410;7.564;2023-11-21T02:04:46;7.63;;;5.32;;
46222;SDS011;31943;51.410;7.564;2023-11-21T02:07:12;9.80;;;4.95;;
46222;SDS011;31943;51.410;7.564;2023-11-21T02:09:37;10.55;;;5.60;;
46222;SDS011;31943;51.410;7.564;2023-11-21T02:12:03;9.30;;;4.68;;
46222;SDS011;31943;51.410;7.564;2023-11-21T02:14:29;8.82;;;5.43;;
46222;SDS011;31943;51.410;7.564;2023-11-21T02:16:55;7.15;;;5.03;;
46222;SDS011;31943;51.410;7.564;2023-11-21T02:19:23;8.27;;;5.03;;
46222;SDS011;31943;51.410;7.564;2023-11-21T02:21:50;12.30;;;6.10;;
46222;SDS011;31943;51.410;7.564;2023-11-21T02:24:19;8.02;;;5.15;;
46222;SDS011;31943;51.410;7.564;2023-11-21T02:26:46;7.88;;;5.22;;
46222;SDS011;31943;51.410;7.564;2023-11-21T02:29:13;5.82;;;4.85;;
46222;SDS011;31943;51.410;7.564;2023-11-21T02:31:39;10.40;;;6.45;;
46222;SDS011;31943;51.410;7.564;2023-11-21T02:34:04;12.27;;;6.78;;
46222;SDS011;31943;51.410;7.564;2023-11-21T02:36:30;8.63;;;5.60;;
46222;SDS011;31943;51.410;7.564;2023-11-21T02:38:56;10.40;;;6.53;;
46222;SDS011;31943;51.410;7.564;2023-11-21T02:41:23;9.73;;;6.97;;
46222;SDS011;31943;51.410;7.564;2023-11-21T02:43:48;10.75;;;7.00;;
46222;SDS011;31943;51.410;7.564;2023-11-21T02:46:14;8.48;;;5.60;;
46222;SDS011;31943;51.410;7.564;2023-11-21T02:48:40;13.70;;;6.25;;
46222;SDS011;31943;51.410;7.564;2023-11-21T02:51:05;11.13;;;6.13;;
46222;SDS011;31943;51.410;7.564;2023-11-21T02:53:31;7.03;;;5.50;;
46222;SDS011;31943;51.410;7.564;2023-11-21T02:55:57;14.43;;;6.80;;
46222;SDS011;31943;51.410;7.564;2023-11-21T02:58:24;8.70;;;5.25;;
46222;SDS011;31943;51.410;7.564;2023-11-21T03:00:49;7.47;;;6.13;;
46222;SDS011;31943;51.410;7.564;2023-11-21T03:03:16;11.93;;;6.32;;
46222;SDS011;31943;51.410;7.564;2023-11-21T03:05:42;7.38;;;5.90;;
46222;SDS011;31943;51.410;7.564;2023-11-21T03:08:07;8.18;;;6.15;;
46222;SDS011;31943;51.410;7.564;2023-11-21T03:10:33;7.90;;;5.90;;
46222;SDS011;31943;51.410;7.564;2023-11-21T03:12:59;13.68;;;6.70;;
46222;SDS011;31943;51.410;7.564;2023-11-21T03:15:25;11.30;;;6.80;;
46222;SDS011;31943;51.410;7.564;2023-11-21T03:17:51;10.80;;;6.45;;
46222;SDS011;31943;51.410;7.564;2023-11-21T03:20:17;13.13;;;6.43;;
46222;SDS011;31943;51.410;7.564;2023-11-21T03:22:42;10.38;;;5.80;;
46222;SDS011;31943;51.410;7.564;2023-11-21T03:25:08;8.43;;;5.97;;
46222;SDS011;31943;51.410;7.564;2023-11-21T03:27:34;9.52;;;6.38;;
46222;SDS011;31943;51.410;7.564;2023-11-21T03:30:00;11.63;;;6.53;;
46222;SDS011;31943;51.410;7.564;2023-11-21T03:32:28;12.05;;;7.78;;
46222;SDS011;31943;51.410;7.564;2023-11-21T03:34:54;10.30;;;6.22;;
46222;SDS011;31943;51.410;7.564;2023-11-21T03:37:20;9.13;;;6.03;;
46222;SDS011;31943;51.410;7.564;2023-11-21T03:39:46;6.07;;;5.35;;
46222;SDS011;31943;51.410;7.564;2023-11-21T03:42:12;7.63;;;5.88;;
46222;SDS011;31943;51.410;7.564;2023-11-21T03:44:37;11.30;;;7.25;;
46222;SDS011;31943;51.410;7.564;2023-11-21T03:47:03;12.70;;;8.20;;
46222;SDS011;31943;51.410;7.564;2023-11-21T03:49:33;11.65;;;7.65;;
46222;SDS011;31943;51.410;7.564;2023-11-21T03:51:59;11.20;;;7.45;;
46222;SDS011;31943;51.410;7.564;2023-11-21T03:54:25;8.50;;;6.72;;
46222;SDS011;31943;51.410;7.564;2023-11-21T03:56:50;11.65;;;7.43;;
46222;SDS011;31943;51.410;7.564;2023-11-21T03:59:16;10.90;;;7.93;;
46222;SDS011;31943;51.410;7.564;2023-11-21T04:01:41;10.95;;;7.43;;
46222;SDS011;31943;51.410;7.564;2023-11-21T04:04:07;10.20;;;7.53;;
46222;SDS011;31943;51.410;7.564;2023-11-21T04:06:34;7.78;;;6.43;;
46222;SDS011;31943;51.410;7.564;2023-11-21T04:09:00;8.60;;;6.85;;
46222;SDS011;31943;51.410;7.564;2023-11-21T04:11:25;10.57;;;7.43;;
46222;SDS011;31943;51.410;7.564;2023-11-21T04:13:52;13.30;;;8.43;;
46222;SDS011;31943;51.410;7.564;2023-11-21T04:16:17;10.27;;;7.40;;
46222;SDS011;31943;51.410;7.564;2023-11-21T04:18:43;9.40;;;6.80;;
46222;SDS011;31943;51.410;7.564;2023-11-21T04:21:09;13.02;;;7.68;;
46222;SDS011;31943;51.410;7.564;2023-11-21T04:23:36;8.60;;;6.63;;
46222;SDS011;31943;51.410;7.564;2023-11-21T04:26:01;11.27;;;7.72;;
46222;SDS011;31943;51.410;7.564;2023-11-21T04:28:27;11.32;;;7.18;;
46222;SDS011;31943;51.410;7.564;2023-11-21T04:30:53;12.23;;;7.47;;
46222;SDS011;31943;51.410;7.564;2023-11-21T04:33:18;10.48;;;7.13;;
46222;SDS011;31943;51.410;7.564;2023-11-21T04:35:45;10.85;;;7.40;;
46222;SDS011;31943;51.410;7.564;2023-11-21T04:38:11;14.13;;;7.28;;
46222;SDS011;31943;51.410;7.564;2023-11-21T04:40:38;8.20;;;7.05;;
46222;SDS011;31943;51.410;7.564;2023-11-21T04:43:04;9.43;;;6.95;;
46222;SDS011;31943;51.410;7.564;2023-11-21T04:45:29;11.27;;;7.60;;
46222;SDS011;31943;51.410;7.564;2023-11-21T04:47:55;11.80;;;7.53;;
46222;SDS011;31943;51.410;7.564;2023-11-21T04:50:20;10.93;;;7.63;;
46222;SDS011;31943;51.410;7.564;2023-11-21T04:52:46;11.02;;;7.57;;
46222;SDS011;31943;51.410;7.564;2023-11-21T04:55:12;11.20;;;7.88;;
46222;SDS011;31943;51.410;7.564;2023-11-21T04:57:39;9.93;;;7.88;;
46222;SDS011;31943;51.410;7.564;2023-11-21T05:00:05;10.35;;;7.75;;
46222;SDS011;31943;51.410;7.564;2023-11-21T05:02:33;10.85;;;7.18;;
46222;SDS011;31943;51.410;7.564;2023-11-21T05:04:58;12.77;;;7.93;;
46222;SDS011;31943;51.410;7.564;2023-11-21T05:07:24;11.90;;;8.15;;
46222;SDS011;31943;51.410;7.564;2023-11-21T05:09:49;15.00;;;8.93;;
46222;SDS011;31943;51.410;7.564;2023-11-21T05:12:16;14.00;;;7.75;;
46222;SDS011;31943;51.410;7.564;2023-11-21T05:14:43;16.85;;;7.78;;
46222;SDS011;31943;51.410;7.564;2023-11-21T05:17:10;12.07;;;8.52;;
46222;SDS011;31943;51.410;7.564;2023-11-21T05:19:35;14.52;;;8.43;;
46222;SDS011;31943;51.410;7.564;2023-11-21T05:22:01;15.15;;;8.35;;
46222;SDS011;31943;51.410;7.564;2023-11-21T05:24:27;14.27;;;8.55;;
46222;SDS011;31943;51.410;7.564;2023-11-21T05:26:52;11.35;;;7.55;;
46222;SDS011;31943;51.410;7.564;2023-11-21T05:29:18;15.45;;;8.15;;
46222;SDS011;31943;51.410;7.564;2023-11-21T05:31:45;9.23;;;7.50;;
46222;SDS011;31943;51.410;7.564;2023-11-21T05:34:10;14.73;;;8.48;;
46222;SDS011;31943;51.410;7.564;2023-11-21T05:36:37;11.48;;;8.35;;
46222;SDS011;31943;51.410;7.564;2023-11-21T05:39:04;12.45;;;9.23;;
46222;SDS011;31943;51.410;7.564;2023-11-21T05:41:30;13.77;;;9.20;;
46222;SDS011;31943;51.410;7.564;2023-11-21T05:43:55;15.02;;;9.27;;
46222;SDS011;31943;51.410;7.564;2023-11-21T05:46:21;17.05;;;8.68;;
46222;SDS011;31943;51.410;7.564;2023-11-21T05:48:49;14.45;;;9.07;;
46222;SDS011;31943;51.410;7.564;2023-11-21T05:51:15;11.63;;;8.27;;
46222;SDS011;31943;51.410;7.564;2023-11-21T05:53:41;13.07;;;7.95;;
46222;SDS011;31943;51.410;7.564;2023-11-21T05:56:07;10.27;;;7.82;;
46222;SDS011;31943;51.410;7.564;2023-11-21T05:58:33;12.65;;;8.38;;
46222;SDS011;31943;51.410;7.564;2023-11-21T06:04:04;16.77;;;8.68;;
46222;SDS011;31943;51.410;7.564;2023-11-21T06:06:30;13.88;;;7.97;;
46222;SDS011;31943;51.410;7.564;2023-11-21T06:08:55;14.93;;;7.97;;
46222;SDS011;31943;51.410;7.564;2023-11-21T06:11:21;13.13;;;7.95;;
46222;SDS011;31943;51.410;7.564;2023-11-21T06:13:47;16.77;;;9.40;;
46222;SDS011;31943;51.410;7.564;2023-11-21T06:16:13;14.95;;;8.35;;
46222;SDS011;31943;51.410;7.564;2023-11-21T06:18:39;12.40;;;8.35;;
46222;SDS011;31943;51.410;7.564;2023-11-21T06:21:09;14.02;;;8.30;;
46222;SDS011;31943;51.410;7.564;2023-11-21T06:23:35;13.07;;;8.63;;
46222;SDS011;31943;51.410;7.564;2023-11-21T06:26:00;14.13;;;8.35;;
46222;SDS011;31943;51.410;7.564;2023-11-21T06:28:28;13.25;;;8.15;;
46222;SDS011;31943;51.410;7.564;2023-11-21T06:30:54;11.40;;;7.78;;
46222;SDS011;31943;51.410;7.564;2023-11-21T06:33:20;12.07;;;7.85;;
46222;SDS011;31943;51.410;7.564;2023-11-21T06:35:46;12.98;;;8.10;;
46222;SDS011;31943;51.410;7.564;2023-11-21T06:41:18;11.50;;;7.90;;
46222;SDS011;31943;51.410;7.564;2023-11-21T06:43:49;12.30;;;8.20;;
46222;SDS011;31943;51.410;7.564;2023-11-21T06:46:14;14.23;;;8.05;;
46222;SDS011;31943;51.410;7.564;2023-11-21T06:48:41;14.30;;;8.25;;
46222;SDS011;31943;51.410;7.564;2023-11-21T06:51:07;13.07;;;8.63;;
46222;SDS011;31943;51.410;7.564;2023-11-21T06:53:33;12.13;;;7.90;;
46222;SDS011;31943;51.410;7.564;2023-11-21T06:56:00;13.13;;;8.25;;
46222;SDS011;31943;51.410;7.564;2023-11-21T06:58:34;13.18;;;8.32;;
46222;SDS011;31943;51.410;7.564;2023-11-21T07:01:00;12.57;;;7.77;;
46222;SDS011;31943;51.410;7.564;2023-11-21T07:03:28;13.35;;;7.43;;
46222;SDS011;31943;51.410;7.564;2023-11-21T07:06:00;13.73;;;7.30;;
46222;SDS011;31943;51.410;7.564;2023-11-21T07:08:35;9.57;;;6.63;;
46222;SDS011;31943;51.410;7.564;2023-11-21T07:11:13;9.88;;;7.25;;
46222;SDS011;31943;51.410;7.564;2023-11-21T07:13:44;11.32;;;7.15;;
46222;SDS011;31943;51.410;7.564;2023-11-21T07:16:10;14.73;;;6.57;;
46222;SDS011;31943;51.410;7.564;2023-11-21T07:18:36;12.45;;;8.10;;
46222;SDS011;31943;51.410;7.564;2023-11-21T07:21:05;12.18;;;7.82;;
46222;SDS011;31943;51.410;7.564;2023-11-21T07:23:40;15.02;;;8.43;;
46222;SDS011;31943;51.410;7.564;2023-11-21T07:26:08;11.43;;;8.38;;
46222;SDS011;31943;51.410;7.564;2023-11-21T07:28:37;11.23;;;8.70;;
46222;SDS011;31943;51.410;7.564;2023-11-21T07:31:05;12.13;;;8.05;;
46222;SDS011;31943;51.410;7.564;2023-11-21T07:33:31;15.55;;;9.35;;
46222;SDS011;31943;51.410;7.564;2023-11-21T07:35:57;14.50;;;8.80;;
46222;SDS011;31943;51.410;7.564;2023-11-21T07:38:22;15.27;;;9.10;;
46222;SDS011;31943;51.410;7.564;2023-11-21T07:40:48;16.75;;;9.52;;
46222;SDS011;31943;51.410;7.564;2023-11-21T07:43:15;17.38;;;9.77;;
46222;SDS011;31943;51.410;7.564;2023-11-21T07:45:41;14.93;;;8.75;;
46222;SDS011;31943;51.410;7.564;2023-11-21T07:48:09;15.77;;;9.65;;
46222;SDS011;31943;51.410;7.564;2023-11-21T07:50:35;15.90;;;10.02;;
46222;SDS011;31943;51.410;7.564;2023-11-21T07:53:01;13.60;;;9.68;;
46222;SDS011;31943;51.410;7.564;2023-11-21T08:01:58;13.35;;;9.32;;
46222;SDS011;31943;51.410;7.564;2023-11-21T08:04:27;13.25;;;9.73;;
46222;SDS011;31943;51.410;7.564;2023-11-21T08:06:53;14.52;;;9.50;;
46222;SDS011;31943;51.410;7.564;2023-11-21T08:09:19;12.40;;;9.00;;
46222;SDS011;31943;51.410;7.564;2023-11-21T08:11:45;15.70;;;10.27;;
46222;SDS011;31943;51.410;7.564;2023-11-21T08:14:10;12.73;;;9.27;;
46222;SDS011;31943;51.410;7.564;2023-11-21T08:16:38;16.73;;;10.05;;
46222;SDS011;31943;51.410;7.564;2023-11-21T08:19:03;18.17;;;10.30;;
46222;SDS011;31943;51.410;7.564;2023-11-21T08:21:39;14.80;;;9.70;;
46222;SDS011;31943;51.410;7.564;2023-11-21T08:24:06;14.82;;;9.77;;
46222;SDS011;31943;51.410;7.564;2023-11-21T08:26:32;13.68;;;9.25;;
46222;SDS011;31943;51.410;7.564;2023-11-21T08:29:03;15.20;;;10.18;;
46222;SDS011;31943;51.410;7.564;2023-11-21T08:31:30;19.13;;;10.82;;
46222;SDS011;31943;51.410;7.564;2023-11-21T08:33:56;14.73;;;9.77;;
46222;SDS011;31943;51.410;7.564;2023-11-21T08:36:23;16.33;;;9.60;;
46222;SDS011;31943;51.410;7.564;2023-11-21T08:38:50;15.10;;;10.13;;
46222;SDS011;31943;51.410;7.564;2023-11-21T08:41:16;14.85;;;10.27;;
46222;SDS011;31943;51.410;7.564;2023-11-21T08:43:41;21.05;;;13.35;;
46222;SDS011;31943;51.410;7.564;2023-11-21T08:46:07;24.83;;;15.23;;
46222;SDS011;31943;51.410;7.564;2023-11-21T08:48:33;25.05;;;15.35;;
46222;SDS011;31943;51.410;7.564;2023-11-21T08:51:00;21.27;;;14.35;;
46222;SDS011;31943;51.410;7.564;2023-11-21T08:53:25;23.13;;;15.65;;
46222;SDS011;31943;51.410;7.564;2023-11-21T08:55:53;21.67;;;15.25;;
46222;SDS011;31943;51.410;7.564;2023-11-21T08:58:19;21.05;;;13.95;;
46222;SDS011;31943;51.410;7.564;2023-11-21T09:00:46;21.05;;;13.60;;
46222;SDS011;31943;51.410;7.564;2023-11-21T09:03:15;22.58;;;14.52;;
46222;SDS011;31943;51.410;7.564;2023-11-21T09:05:41;18.55;;;13.38;;
46222;SDS011;31943;51.410;7.564;2023-11-21T09:08:08;25.92;;;16.27;;
46222;SDS011;31943;51.410;7.564;2023-11-21T09:10:34;23.98;;;14.75;;
46222;SDS011;31943;51.410;7.564;2023-11-21T09:13:06;21.38;;;13.75;;
46222;SDS011;31943;51.410;7.564;2023-11-21T09:15:33;19.52;;;12.40;;
46222;SDS011;31943;51.410;7.564;2023-11-21T09:18:01;20.85;;;12.55;;
46222;SDS011;31943;51.410;7.564;2023-11-21T09:20:27;21.40;;;12.10;;
46222;SDS011;31943;51.410;7.564;2023-11-21T09:22:53;17.50;;;12.43;;
46222;SDS011;31943;51.410;7.564;2023-11-21T09:25:19;20.90;;;13.90;;
46222;SDS011;31943;51.410;7.564;2023-11-21T09:27:45;21.27;;;13.45;;
46222;SDS011;31943;51.410;7.564;2023-11-21T09:30:13;17.33;;;11.77;;
46222;SDS011;31943;51.410;7.564;2023-11-21T09:32:38;20.92;;;14.05;;
46222;SDS011;31943;51.410;7.564;2023-11-21T09:35:04;23.30;;;13.77;;
46222;SDS011;31943;51.410;7.564;2023-11-21T09:37:31;21.13;;;13.35;;
46222;SDS011;31943;51.410;7.564;2023-11-21T09:40:02;29.95;;;16.75;;
46222;SDS011;31943;51.410;7.564;2023-11-21T09:42:30;31.45;;;16.25;;
46222;SDS011;31943;51.410;7.564;2023-11-21T09:45:03;30.85;;;15.95;;
46222;SDS011;31943;51.410;7.564;2023-11-21T09:47:32;27.38;;;17.45;;
46222;SDS011;31943;51.410;7.564;2023-11-21T09:50:04;30.60;;;18.75;;
46222;SDS011;31943;51.410;7.564;2023-11-21T09:52:32;35.75;;;20.42;;
46222;SDS011;31943;51.410;7.564;2023-11-21T09:55:06;37.55;;;20.80;;
46222;SDS011;31943;51.410;7.564;2023-11-21T09:57:32;38.78;;;19.88;;
46222;SDS011;31943;51.410;7.564;2023-11-21T10:00:00;34.95;;;20.05;;
46222;SDS011;31943;51.410;7.564;2023-11-21T10:02:27;37.03;;;20.92;;
46222;SDS011;31943;51.410;7.564;2023-11-21T10:04:58;37.60;;;19.75;;
46222;SDS011;31943;51.410;7.564;2023-11-21T10:07:25;41.67;;;21.70;;
46222;SDS011;31943;51.410;7.564;2023-11-21T10:09:52;37.88;;;21.52;;
46222;SDS011;31943;51.410;7.564;2023-11-21T10:12:18;41.45;;;21.13;;
46222;SDS011;31943;51.410;7.564;2023-11-21T10:14:46;37.25;;;19.67;;
46222;SDS011;31943;51.410;7.564;2023-11-21T10:17:14;38.40;;;21.00;;
46222;SDS011;31943;51.410;7.564;2023-11-21T10:19:40;33.47;;;18.92;;
46222;SDS011;31943;51.410;7.564;2023-11-21T10:22:09;41.03;;;20.13;;
46222;SDS011;31943;51.410;7.564;2023-11-21T10:24:35;42.97;;;20.98;;
46222;SDS011;31943;51.410;7.564;2023-11-21T10:27:03;37.42;;;21.52;;
46222;SDS011;31943;51.410;7.564;2023-11-21T11:03:05;43.25;;;22.88;;
46222;SDS011;31943;51.410;7.564;2023-11-21T11:05:32;44.85;;;24.30;;
46222;SDS011;31943;51.410;7.564;2023-11-21T11:07:59;47.53;;;24.08;;
46222;SDS011;31943;51.410;7.564;2023-11-21T11:10:29;44.90;;;22.40;;
46222;SDS011;31943;51.410;7.564;2023-11-21T11:12:55;44.47;;;21.80;;
46222;SDS011;31943;51.410;7.564;2023-11-21T11:15:23;44.05;;;22.13;;
46222;SDS011;31943;51.410;7.564;2023-11-21T11:17:50;44.80;;;23.75;;
46222;SDS011;31943;51.410;7.564;2023-11-21T11:20:17;46.80;;;22.60;;
46222;SDS011;31943;51.410;7.564;2023-11-21T12:19:04;53.50;;;31.23;;
46222;SDS011;31943;51.410;7.564;2023-11-21T12:21:31;53.90;;;32.45;;
46222;SDS011;31943;51.410;7.564;2023-11-21T12:23:58;49.47;;;30.48;;
46222;SDS011;31943;51.410;7.564;2023-11-21T12:26:23;50.65;;;28.95;;
46222;SDS011;31943;51.410;7.564;2023-11-21T12:28:51;49.35;;;27.15;;
46222;SDS011;31943;51.410;7.564;2023-11-21T12:31:20;39.58;;;23.45;;
46222;SDS011;31943;51.410;7.564;2023-11-21T12:33:46;41.65;;;23.30;;
46222;SDS011;31943;51.410;7.564;2023-11-21T12:36:15;36.30;;;22.25;;
46222;SDS011;31943;51.410;7.564;2023-11-21T12:38:41;31.02;;;18.80;;
46222;SDS011;31943;51.410;7.564;2023-11-21T12:41:08;30.10;;;18.52;;
46222;SDS011;31943;51.410;7.564;2023-11-21T12:43:35;26.05;;;15.82;;
46222;SDS011;31943;51.410;7.564;2023-11-21T12:46:07;25.00;;;15.80;;
46222;SDS011;31943;51.410;7.564;2023-11-21T12:48:36;23.52;;;14.43;;
46222;SDS011;31943;51.410;7.564;2023-11-21T12:51:03;20.88;;;12.95;;
46222;SDS011;31943;51.410;7.564;2023-11-21T12:53:31;22.95;;;12.85;;
46222;SDS011;31943;51.410;7.564;2023-11-21T12:56:01;23.02;;;12.98;;
46222;SDS011;31943;51.410;7.564;2023-11-21T12:58:27;24.52;;;13.35;;
46222;SDS011;31943;51.410;7.564;2023-11-21T13:00:53;23.73;;;14.23;;
46222;SDS011;31943;51.410;7.564;2023-11-21T13:03:19;19.40;;;13.05;;
46222;SDS011;31943;51.410;7.564;2023-11-21T13:05:48;18.88;;;12.85;;
46222;SDS011;31943;51.410;7.564;2023-11-21T13:08:14;20.58;;;11.65;;
46222;SDS011;31943;51.410;7.564;2023-11-21T13:10:43;19.00;;;12.63;;
46222;SDS011;31943;51.410;7.564;2023-11-21T13:13:10;21.95;;;13.52;;
46222;SDS011;31943;51.410;7.564;2023-11-21T13:15:38;20.58;;;12.50;;
46222;SDS011;31943;51.410;7.564;2023-11-21T13:18:05;22.13;;;14.32;;
46222;SDS011;31943;51.410;7.564;2023-11-21T13:20:33;20.75;;;13.82;;
46222;SDS011;31943;51.410;7.564;2023-11-21T13:22:59;21.80;;;14.90;;
46222;SDS011;31943;51.410;7.564;2023-11-21T13:25:25;21.80;;;13.48;;
46222;SDS011;31943;51.410;7.564;2023-11-21T13:27:56;18.92;;;12.73;;
46222;SDS011;31943;51.410;7.564;2023-11-21T13:30:24;22.95;;;13.35;;
46222;SDS011;31943;51.410;7.564;2023-11-21T13:32:54;23.20;;;14.07;;
46222;SDS011;31943;51.410;7.564;2023-11-21T13:35:32;25.77;;;15.18;;
46222;SDS011;31943;51.410;7.564;2023-11-21T13:38:02;26.52;;;14.27;;
46222;SDS011;31943;51.410;7.564;2023-11-21T13:40:31;23.10;;;14.95;;
46222;SDS011;31943;51.410;7.564;2023-11-21T13:42:59;20.85;;;14.63;;
46222;SDS011;31943;51.410;7.564;2023-11-21T13:45:32;21.90;;;13.85;;
46222;SDS011;31943;51.410;7.564;2023-11-21T13:47:58;21.95;;;13.60;;
46222;SDS011;31943;51.410;7.564;2023-11-21T13:50:27;21.13;;;13.45;;
46222;SDS011;31943;51.410;7.564;2023-11-21T13:52:55;19.88;;;13.43;;
46222;SDS011;31943;51.410;7.564;2023-11-21T13:55:22;22.20;;;12.40;;
46222;SDS011;31943;51.410;7.564;2023-11-21T13:57:52;21.25;;;12.68;;
46222;SDS011;31943;51.410;7.564;2023-11-21T14:12:35;23.08;;;13.52;;
46222;SDS011;31943;51.410;7.564;2023-11-21T14:15:01;19.65;;;13.27;;
46222;SDS011;31943;51.410;7.564;2023-11-21T14:17:27;23.17;;;12.15;;
46222;SDS011;31943;51.410;7.564;2023-11-21T14:19:55;17.20;;;11.80;;
46222;SDS011;31943;51.410;7.564;2023-11-21T14:22:21;17.27;;;11.43;;
46222;SDS011;31943;51.410;7.564;2023-11-21T14:24:47;16.52;;;11.23;;
46222;SDS011;31943;51.410;7.564;2023-11-21T14:27:13;16.10;;;10.95;;
46222;SDS011;31943;51.410;7.564;2023-11-21T14:29:41;19.30;;;10.57;;
46222;SDS011;31943;51.410;7.564;2023-11-21T14:32:08;19.60;;;10.63;;
46222;SDS011;31943;51.410;7.564;2023-11-21T14:34:33;15.40;;;10.48;;
46222;SDS011;31943;51.410;7.564;2023-11-21T14:36:59;14.88;;;10.70;;
46222;SDS011;31943;51.410;7.564;2023-11-21T14:39:24;15.65;;;9.85;;
46222;SDS011;31943;51.410;7.564;2023-11-21T14:41:51;15.93;;;10.63;;
46222;SDS011;31943;51.410;7.564;2023-11-21T14:44:18;15.40;;;10.07;;
46222;SDS011;31943;51.410;7.564;2023-11-21T14:46:48;16.08;;;10.10;;
46222;SDS011;31943;51.410;7.564;2023-11-21T14:49:13;15.85;;;11.18;;
46222;SDS011;31943;51.410;7.564;2023-11-21T14:51:41;16.48;;;11.77;;
46222;SDS011;31943;51.410;7.564;2023-11-21T14:54:07;16.42;;;11.32;;
46222;SDS011;31943;51.410;7.564;2023-11-21T14:56:33;15.85;;;11.80;;
46222;SDS011;31943;51.410;7.564;2023-11-21T14:58:59;16.02;;;11.60;;
46222;SDS011;31943;51.410;7.564;2023-11-21T15:01:25;14.10;;;10.77;;
46222;SDS011;31943;51.410;7.564;2023-11-21T15:03:52;16.30;;;11.85;;
46222;SDS011;31943;51.410;7.564;2023-11-21T15:06:18;15.32;;;11.07;;
46222;SDS011;31943;51.410;7.564;2023-11-21T15:08:44;12.05;;;9.40;;
46222;SDS011;31943;51.410;7.564;2023-11-21T15:11:10;10.68;;;8.07;;
46222;SDS011;31943;51.410;7.564;2023-11-21T15:13:36;10.43;;;9.02;;
46222;SDS011;31943;51.410;7.564;2023-11-21T15:16:02;10.90;;;9.18;;
46222;SDS011;31943;51.410;7.564;2023-11-21T15:18:28;12.68;;;9.45;;
46222;SDS011;31943;51.410;7.564;2023-11-21T15:20:55;14.63;;;11.63;;
46222;SDS011;31943;51.410;7.564;2023-11-21T15:23:21;17.80;;;13.55;;
46222;SDS011;31943;51.410;7.564;2023-11-21T15:25:47;18.58;;;14.88;;
46222;SDS011;31943;51.410;7.564;2023-11-21T15:28:12;18.02;;;14.55;;
46222;SDS011;31943;51.410;7.564;2023-11-21T15:30:38;17.80;;;14.93;;
46222;SDS011;31943;51.410;7.564;2023-11-21T15:33:04;17.58;;;15.52;;
46222;SDS011;31943;51.410;7.564;2023-11-21T15:35:30;19.50;;;15.15;;
46222;SDS011;31943;51.410;7.564;2023-11-21T15:37:58;18.83;;;14.27;;
46222;SDS011;31943;51.410;7.564;2023-11-21T15:40:23;17.63;;;15.00;;
46222;SDS011;31943;51.410;7.564;2023-11-21T15:42:49;19.48;;;16.33;;
46222;SDS011;31943;51.410;7.564;2023-11-21T15:45:15;23.85;;;18.60;;
46222;SDS011;31943;51.410;7.564;2023-11-21T15:47:40;26.63;;;22.10;;
46222;SDS011;31943;51.410;7.564;2023-11-21T15:50:06;26.65;;;21.15;;
46222;SDS011;31943;51.410;7.564;2023-11-21T15:52:33;26.48;;;21.45;;
46222;SDS011;31943;51.410;7.564;2023-11-21T15:55:03;25.88;;;21.02;;
46222;SDS011;31943;51.410;7.564;2023-11-21T15:57:29;28.43;;;22.80;;
46222;SDS011;31943;51.410;7.564;2023-11-21T15:59:55;28.02;;;23.05;;
46222;SDS011;31943;51.410;7.564;2023-11-21T16:02:21;21.75;;;18.38;;
46222;SDS011;31943;51.410;7.564;2023-11-21T16:04:46;22.45;;;18.60;;
46222;SDS011;31943;51.410;7.564;2023-11-21T16:07:12;21.73;;;17.45;;
46222;SDS011;31943;51.410;7.564;2023-11-21T16:09:38;19.38;;;16.10;;
46222;SDS011;31943;51.410;7.564;2023-11-21T16:12:06;17.92;;;16.00;;
46222;SDS011;31943;51.410;7.564;2023-11-21T16:14:33;19.63;;;16.20;;
46222;SDS011;31943;51.410;7.564;2023-11-21T16:16:59;24.27;;;15.38;;
46222;SDS011;31943;51.410;7.564;2023-11-21T16:19:26;17.08;;;15.27;;
46222;SDS011;31943;51.410;7.564;2023-11-21T16:21:52;19.73;;;15.40;;